sensor_id;sensor_type;location;lat;lon;timestamp;pressure;altitude;pressure_sealevel;temperature;humidity
6198;BME280;3132;42.622;23.328;2023-04-26T00:01:28;91898.03;;;8.19;100.00
6198;BME280;3132;42.622;23.328;2023-04-26T00:03:54;91905.84;;;8.19;100.00
6198;BME280;3132;42.622;23.328;2023-04-26T00:06:20;91897.81;;;8.16;100.00
6198;BME280;3132;42.622;23.328;2023-04-26T00:08:45;91837.34;;;7.73;100.00
6198;BME280;3132;42.622;23.328;2023-04-26T00:11:11;91870.75;;;7.98;100.00
6198;BME280;3132;42.622;23.328;2023-04-26T00:13:36;91859.03;;;7.82;100.00
6198;BME280;3132;42.622;23.328;2023-04-26T00:16:03;91886.44;;;8.12;100.00
6198;BME280;3132;42.622;23.328;2023-04-26T00:18:28;91879.22;;;7.90;100.00
6198;BME280;3132;42.622;23.328;2023-04-26T00:20:56;91879.13;;;7.95;100.00
6198;BME280;3132;42.622;23.328;2023-04-26T00:23:21;91873.16;;;7.76;100.00
6198;BME280;3132;42.622;23.328;2023-04-26T00:25:46;91867.41;;;7.79;100.00
6198;BME280;3132;42.622;23.328;2023-04-26T00:28:12;91835.41;;;7.60;100.00
6198;BME280;3132;42.622;23.328;2023-04-26T00:30:37;91871.88;;;7.92;100.00
6198;BME280;3132;42.622;23.328;2023-04-26T00:33:06;91856.00;;;7.75;100.00
6198;BME280;3132;42.622;23.328;2023-04-26T00:35:31;91858.22;;;7.63;100.00
6198;BME280;3132;42.622;23.328;2023-04-26T00:37:57;91845.63;;;7.52;100.00
6198;BME280;3132;42.622;23.328;2023-04-26T00:40:22;91858.34;;;7.53;100.00
6198;BME280;3132;42.622;23.328;2023-04-26T00:42:48;91860.47;;;7.51;100.00
6198;BME280;3132;42.622;23.328;2023-04-26T00:45:13;91859.69;;;7.51;100.00
6198;BME280;3132;42.622;23.328;2023-04-26T00:47:39;91853.16;;;7.53;100.00
6198;BME280;3132;42.622;23.328;2023-04-26T00:50:06;91855.03;;;7.48;100.00
6198;BME280;3132;42.622;23.328;2023-04-26T00:52:32;91868.72;;;7.53;100.00
6198;BME280;3132;42.622;23.328;2023-04-26T00:54:58;91867.19;;;7.52;100.00
6198;BME280;3132;42.622;23.328;2023-04-26T00:57:23;91841.13;;;7.39;100.00
6198;BME280;3132;42.622;23.328;2023-04-26T00:59:49;91847.88;;;7.40;100.00
6198;BME280;3132;42.622;23.328;2023-04-26T01:02:14;91848.69;;;7.35;100.00
6198;BME280;3132;42.622;23.328;2023-04-26T01:04:41;91850.03;;;7.33;100.00
6198;BME280;3132;42.622;23.328;2023-04-26T01:07:07;91858.19;;;7.21;100.00
6198;BME280;3132;42.622;23.328;2023-04-26T01:09:32;91853.28;;;7.20;100.00
6198;BME280;3132;42.622;23.328;2023-04-26T01:11:59;91843.22;;;7.13;100.00
6198;BME280;3132;42.622;23.328;2023-04-26T01:14:25;91864.88;;;7.27;100.00
6198;BME280;3132;42.622;23.328;2023-04-26T01:16:51;91859.59;;;7.14;100.00
6198;BME280;3132;42.622;23.328;2023-04-26T01:19:17;91853.50;;;7.23;100.00
6198;BME280;3132;42.622;23.328;2023-04-26T01:21:43;91849.91;;;7.19;100.00
6198;BME280;3132;42.622;23.328;2023-04-26T01:24:10;91854.53;;;7.22;100.00
6198;BME280;3132;42.622;23.328;2023-04-26T01:26:36;91847.81;;;7.21;100.00
6198;BME280;3132;42.622;23.328;2023-04-26T01:29:18;91852.97;;;7.26;100.00
6198;BME280;3132;42.622;23.328;2023-04-26T01:31:45;91843.56;;;7.07;100.00
6198;BME280;3132;42.622;23.328;2023-04-26T01:34:11;91841.13;;;7.15;100.00
6198;BME280;3132;42.622;23.328;2023-04-26T01:36:36;91839.69;;;7.04;100.00
6198;BME280;3132;42.622;23.328;2023-04-26T01:39:02;91861.41;;;7.13;100.00
6198;BME280;3132;42.622;23.328;2023-04-26T01:41:28;91811.19;;;6.99;100.00
6198;BME280;3132;42.622;23.328;2023-04-26T01:43:53;91863.91;;;7.23;100.00
6198;BME280;3132;42.622;23.328;2023-04-26T01:46:19;91855.16;;;7.38;100.00
6198;BME280;3132;42.622;23.328;2023-04-26T01:48:45;91856.44;;;7.40;100.00
6198;BME280;3132;42.622;23.328;2023-04-26T01:51:11;91850.91;;;7.23;100.00
6198;BME280;3132;42.622;23.328;2023-04-26T01:53:37;91855.81;;;7.48;100.00
6198;BME280;3132;42.622;23.328;2023-04-26T01:56:02;91850.22;;;7.36;100.00
6198;BME280;3132;42.622;23.328;2023-04-26T01:58:28;91833.56;;;7.19;100.00
6198;BME280;3132;42.622;23.328;2023-04-26T02:00:55;91857.09;;;7.27;100.00
6198;BME280;3132;42.622;23.328;2023-04-26T02:03:20;91859.63;;;7.32;100.00
6198;BME280;3132;42.622;23.328;2023-04-26T02:05:45;91823.56;;;7.07;100.00
6198;BME280;3132;42.622;23.328;2023-04-26T02:08:11;91851.94;;;7.22;100.00
6198;BME280;3132;42.622;23.328;2023-04-26T02:10:36;91835.44;;;7.13;100.00
6198;BME280;3132;42.622;23.328;2023-04-26T02:13:02;91847.81;;;7.21;100.00
6198;BME280;3132;42.622;23.328;2023-04-26T02:15:27;91816.38;;;6.99;100.00
6198;BME280;3132;42.622;23.328;2023-04-26T02:17:53;91819.88;;;7.13;100.00
6198;BME280;3132;42.622;23.328;2023-04-26T02:20:20;91836.31;;;7.27;100.00
6198;BME280;3132;42.622;23.328;2023-04-26T02:22:45;91845.13;;;7.31;100.00
6198;BME280;3132;42.622;23.328;2023-04-26T02:25:10;91833.16;;;7.30;100.00
6198;BME280;3132;42.622;23.328;2023-04-26T02:27:36;91846.72;;;7.27;100.00
6198;BME280;3132;42.622;23.328;2023-04-26T02:30:02;91845.50;;;7.43;100.00
6198;BME280;3132;42.622;23.328;2023-04-26T02:32:28;91837.94;;;7.47;100.00
6198;BME280;3132;42.622;23.328;2023-04-26T02:34:53;91839.28;;;7.63;100.00
6198;BME280;3132;42.622;23.328;2023-04-26T02:37:18;91851.56;;;7.57;100.00
6198;BME280;3132;42.622;23.328;2023-04-26T02:39:48;91836.59;;;7.49;100.00
6198;BME280;3132;42.622;23.328;2023-04-26T02:42:14;91845.19;;;7.68;100.00
6198;BME280;3132;42.622;23.328;2023-04-26T02:44:40;91819.72;;;7.70;100.00
6198;BME280;3132;42.622;23.328;2023-04-26T02:47:05;91811.91;;;7.70;100.00
6198;BME280;3132;42.622;23.328;2023-04-26T02:49:30;91835.59;;;7.87;100.00
6198;BME280;3132;42.622;23.328;2023-04-26T02:51:56;91822.78;;;7.91;100.00
6198;BME280;3132;42.622;23.328;2023-04-26T02:54:21;91812.84;;;7.79;100.00
6198;BME280;3132;42.622;23.328;2023-04-26T02:56:47;91817.41;;;7.87;100.00
6198;BME280;3132;42.622;23.328;2023-04-26T02:59:12;91806.72;;;7.70;100.00
6198;BME280;3132;42.622;23.328;2023-04-26T03:01:37;91826.91;;;7.55;100.00
6198;BME280;3132;42.622;23.328;2023-04-26T03:04:03;91836.78;;;7.76;100.00
6198;BME280;3132;42.622;23.328;2023-04-26T03:06:30;91840.16;;;7.53;100.00
6198;BME280;3132;42.622;23.328;2023-04-26T03:08:55;91826.44;;;7.53;100.00
6198;BME280;3132;42.622;23.328;2023-04-26T03:11:20;91827.91;;;7.96;100.00
6198;BME280;3132;42.622;23.328;2023-04-26T03:13:46;91821.25;;;7.90;100.00
6198;BME280;3132;42.622;23.328;2023-04-26T03:16:11;91814.16;;;7.95;100.00
6198;BME280;3132;42.622;23.328;2023-04-26T03:18:36;91819.72;;;7.89;100.00
6198;BME280;3132;42.622;23.328;2023-04-26T03:21:02;91817.59;;;7.91;100.00
6198;BME280;3132;42.622;23.328;2023-04-26T03:23:28;91830.88;;;8.08;100.00
6198;BME280;3132;42.622;23.328;2023-04-26T03:25:53;91834.66;;;8.15;100.00
6198;BME280;3132;42.622;23.328;2023-04-26T03:28:19;91834.25;;;8.08;100.00
6198;BME280;3132;42.622;23.328;2023-04-26T03:30:44;91830.28;;;8.11;100.00
6198;BME280;3132;42.622;23.328;2023-04-26T03:33:11;91830.50;;;8.14;100.00
6198;BME280;3132;42.622;23.328;2023-04-26T03:35:37;91838.09;;;8.11;100.00
6198;BME280;3132;42.622;23.328;2023-04-26T03:38:03;91827.56;;;8.02;100.00
6198;BME280;3132;42.622;23.328;2023-04-26T03:40:28;91825.81;;;8.16;100.00
6198;BME280;3132;42.622;23.328;2023-04-26T03:42:54;91819.63;;;8.12;100.00
6198;BME280;3132;42.622;23.328;2023-04-26T03:45:20;91819.25;;;8.19;100.00
6198;BME280;3132;42.622;23.328;2023-04-26T03:47:45;91827.88;;;8.52;100.00
6198;BME280;3132;42.622;23.328;2023-04-26T03:50:11;91842.53;;;8.80;100.00
6198;BME280;3132;42.622;23.328;2023-04-26T03:52:36;91838.88;;;8.81;100.00
6198;BME280;3132;42.622;23.328;2023-04-26T03:55:02;91830.28;;;8.80;100.00
6198;BME280;3132;42.622;23.328;2023-04-26T03:57:27;91836.50;;;9.25;100.00
6198;BME280;3132;42.622;23.328;2023-04-26T03:59:53;91816.94;;;9.27;100.00
6198;BME280;3132;42.622;23.328;2023-04-26T04:02:18;91832.06;;;9.39;100.00
6198;BME280;3132;42.622;23.328;2023-04-26T04:04:43;91843.91;;;8.91;100.00
6198;BME280;3132;42.622;23.328;2023-04-26T04:07:09;91808.53;;;9.03;100.00
6198;BME280;3132;42.622;23.328;2023-04-26T04:09:34;91854.34;;;9.45;100.00
6198;BME280;3132;42.622;23.328;2023-04-26T04:12:00;91860.44;;;9.40;100.00
6198;BME280;3132;42.622;23.328;2023-04-26T04:14:25;91860.06;;;9.60;100.00
6198;BME280;3132;42.622;23.328;2023-04-26T04:16:50;91860.06;;;9.47;100.00
6198;BME280;3132;42.622;23.328;2023-04-26T04:19:17;91868.75;;;9.56;100.00
6198;BME280;3132;42.622;23.328;2023-04-26T04:21:42;91844.25;;;9.57;100.00
6198;BME280;3132;42.622;23.328;2023-04-26T04:24:08;91857.78;;;9.95;100.00
6198;BME280;3132;42.622;23.328;2023-04-26T04:26:33;91870.06;;;9.80;100.00
6198;BME280;3132;42.622;23.328;2023-04-26T04:28:58;91871.63;;;9.95;100.00
6198;BME280;3132;42.622;23.328;2023-04-26T04:31:33;91870.63;;;10.18;100.00
6198;BME280;3132;42.622;23.328;2023-04-26T04:33:59;91863.81;;;10.44;100.00
6198;BME280;3132;42.622;23.328;2023-04-26T04:36:24;91875.09;;;10.75;98.83
6198;BME280;3132;42.622;23.328;2023-04-26T04:38:51;91868.31;;;10.74;97.40
6198;BME280;3132;42.622;23.328;2023-04-26T04:41:17;91873.91;;;10.81;98.13
6198;BME280;3132;42.622;23.328;2023-04-26T04:43:44;91863.34;;;10.64;98.37
6198;BME280;3132;42.622;23.328;2023-04-26T04:46:10;91884.53;;;10.27;100.00
6198;BME280;3132;42.622;23.328;2023-04-26T04:48:35;91882.53;;;9.97;100.00
6198;BME280;3132;42.622;23.328;2023-04-26T04:51:03;91881.25;;;9.95;100.00
6198;BME280;3132;42.622;23.328;2023-04-26T04:53:29;91883.69;;;10.05;100.00
6198;BME280;3132;42.622;23.328;2023-04-26T04:55:54;91884.06;;;9.98;100.00
6198;BME280;3132;42.622;23.328;2023-04-26T04:58:21;91863.34;;;9.79;100.00
6198;BME280;3132;42.622;23.328;2023-04-26T05:00:46;91870.28;;;9.84;100.00
6198;BME280;3132;42.622;23.328;2023-04-26T05:03:15;91886.31;;;9.91;100.00
6198;BME280;3132;42.622;23.328;2023-04-26T05:05:40;91884.25;;;10.02;100.00
6198;BME280;3132;42.622;23.328;2023-04-26T05:08:05;91874.28;;;10.31;100.00
6198;BME280;3132;42.622;23.328;2023-04-26T05:10:34;91869.09;;;10.17;100.00
6198;BME280;3132;42.622;23.328;2023-04-26T05:13:00;91883.38;;;10.55;100.00
6198;BME280;3132;42.622;23.328;2023-04-26T05:15:25;91868.19;;;10.57;98.19
6198;BME280;3132;42.622;23.328;2023-04-26T05:17:51;91881.47;;;10.69;99.12
6198;BME280;3132;42.622;23.328;2023-04-26T05:20:16;91864.47;;;10.72;98.98
6198;BME280;3132;42.622;23.328;2023-04-26T05:22:42;91897.34;;;11.25;98.01
6198;BME280;3132;42.622;23.328;2023-04-26T05:25:08;91892.69;;;11.45;96.27
6198;BME280;3132;42.622;23.328;2023-04-26T05:27:34;91889.34;;;11.53;94.67
6198;BME280;3132;42.622;23.328;2023-04-26T05:30:02;91893.81;;;11.52;95.23
6198;BME280;3132;42.622;23.328;2023-04-26T05:32:28;91885.97;;;11.83;92.69
6198;BME280;3132;42.622;23.328;2023-04-26T05:34:54;91888.72;;;12.68;90.44
6198;BME280;3132;42.622;23.328;2023-04-26T05:37:19;91901.31;;;13.34;85.06
6198;BME280;3132;42.622;23.328;2023-04-26T05:39:45;91905.69;;;13.13;84.80
6198;BME280;3132;42.622;23.328;2023-04-26T05:42:10;91923.13;;;13.72;82.47
6198;BME280;3132;42.622;23.328;2023-04-26T05:44:35;91882.56;;;12.89;84.78
6198;BME280;3132;42.622;23.328;2023-04-26T05:47:01;91912.16;;;13.07;85.48
6198;BME280;3132;42.622;23.328;2023-04-26T05:49:26;91912.91;;;13.08;85.57
6198;BME280;3132;42.622;23.328;2023-04-26T05:51:52;91914.75;;;13.16;85.42
6198;BME280;3132;42.622;23.328;2023-04-26T05:54:17;91918.31;;;13.11;84.74
6198;BME280;3132;42.622;23.328;2023-04-26T05:56:42;91906.28;;;12.42;86.13
6198;BME280;3132;42.622;23.328;2023-04-26T05:59:08;91919.69;;;12.91;83.73
6198;BME280;3132;42.622;23.328;2023-04-26T06:01:33;91925.38;;;12.93;84.27
6198;BME280;3132;42.622;23.328;2023-04-26T06:03:59;91881.00;;;12.63;84.44
6198;BME280;3132;42.622;23.328;2023-04-26T06:06:25;91922.34;;;13.80;81.77
6198;BME280;3132;42.622;23.328;2023-04-26T06:08:52;91917.38;;;14.25;78.47
6198;BME280;3132;42.622;23.328;2023-04-26T06:11:17;91911.59;;;15.55;73.00
6198;BME280;3132;42.622;23.328;2023-04-26T06:13:43;91930.78;;;16.24;62.19
6198;BME280;3132;42.622;23.328;2023-04-26T06:16:08;91928.72;;;15.08;64.40
6198;BME280;3132;42.622;23.328;2023-04-26T06:18:34;91900.50;;;14.34;72.21
6198;BME280;3132;42.622;23.328;2023-04-26T06:20:59;91921.94;;;12.25;74.58
6198;BME280;3132;42.622;23.328;2023-04-26T06:23:25;91926.63;;;12.96;73.44
6198;BME280;3132;42.622;23.328;2023-04-26T06:25:50;91907.66;;;13.33;74.66
6198;BME280;3132;42.622;23.328;2023-04-26T06:28:15;91920.31;;;12.54;77.82
6198;BME280;3132;42.622;23.328;2023-04-26T06:30:41;91920.22;;;12.12;77.37
6198;BME280;3132;42.622;23.328;2023-04-26T06:33:07;91905.25;;;11.95;77.85
6198;BME280;3132;42.622;23.328;2023-04-26T06:35:38;91881.66;;;10.73;79.99
6198;BME280;3132;42.622;23.328;2023-04-26T06:38:03;91927.84;;;11.08;79.83
6198;BME280;3132;42.622;23.328;2023-04-26T06:40:29;91909.88;;;10.84;79.88
6198;BME280;3132;42.622;23.328;2023-04-26T06:42:54;91931.50;;;11.29;77.81
6198;BME280;3132;42.622;23.328;2023-04-26T06:45:21;91927.72;;;11.13;79.32
6198;BME280;3132;42.622;23.328;2023-04-26T06:47:46;91920.41;;;11.54;80.31
6198;BME280;3132;42.622;23.328;2023-04-26T06:50:12;91920.22;;;11.73;80.01
6198;BME280;3132;42.622;23.328;2023-04-26T06:52:37;91915.19;;;11.85;79.98
6198;BME280;3132;42.622;23.328;2023-04-26T06:55:03;91917.59;;;11.64;81.63
6198;BME280;3132;42.622;23.328;2023-04-26T06:57:28;91930.09;;;11.54;76.46
6198;BME280;3132;42.622;23.328;2023-04-26T06:59:54;91897.16;;;10.91;77.55
6198;BME280;3132;42.622;23.328;2023-04-26T07:02:19;91929.44;;;11.17;76.32
6198;BME280;3132;42.622;23.328;2023-04-26T07:04:47;91890.69;;;10.89;76.33
6198;BME280;3132;42.622;23.328;2023-04-26T07:07:12;91935.28;;;11.45;75.31
6198;BME280;3132;42.622;23.328;2023-04-26T07:09:38;91943.97;;;11.10;76.23
6198;BME280;3132;42.622;23.328;2023-04-26T07:12:04;91936.19;;;11.41;75.13
6198;BME280;3132;42.622;23.328;2023-04-26T07:14:29;91885.16;;;11.12;74.12
6198;BME280;3132;42.622;23.328;2023-04-26T07:16:55;91931.19;;;11.53;75.21
6198;BME280;3132;42.622;23.328;2023-04-26T07:19:20;91937.34;;;12.35;72.94
6198;BME280;3132;42.622;23.328;2023-04-26T07:21:46;91918.72;;;12.36;72.61
6198;BME280;3132;42.622;23.328;2023-04-26T07:24:11;91922.72;;;11.56;65.29
6198;BME280;3132;42.622;23.328;2023-04-26T07:26:37;91926.78;;;11.39;63.99
6198;BME280;3132;42.622;23.328;2023-04-26T07:29:03;91931.06;;;11.58;63.79
6198;BME280;3132;42.622;23.328;2023-04-26T07:31:29;91943.53;;;11.61;60.16
6198;BME280;3132;42.622;23.328;2023-04-26T07:33:56;91938.47;;;12.68;60.41
6198;BME280;3132;42.622;23.328;2023-04-26T07:36:21;91920.00;;;12.73;56.08
6198;BME280;3132;42.622;23.328;2023-04-26T07:38:46;91927.31;;;12.28;56.05
6198;BME280;3132;42.622;23.328;2023-04-26T07:41:12;91940.25;;;12.25;57.04
6198;BME280;3132;42.622;23.328;2023-04-26T07:43:38;91947.22;;;12.55;58.87
6198;BME280;3132;42.622;23.328;2023-04-26T07:46:03;91950.50;;;12.86;59.20
6198;BME280;3132;42.622;23.328;2023-04-26T07:48:29;91949.66;;;12.34;60.43
6198;BME280;3132;42.622;23.328;2023-04-26T07:50:54;91946.69;;;13.01;60.97
6198;BME280;3132;42.622;23.328;2023-04-26T07:53:20;91950.50;;;12.86;61.95
6198;BME280;3132;42.622;23.328;2023-04-26T07:55:46;91941.66;;;12.31;65.26
6198;BME280;3132;42.622;23.328;2023-04-26T07:58:11;91925.69;;;11.93;63.95
6198;BME280;3132;42.622;23.328;2023-04-26T08:00:39;91955.13;;;12.80;64.89
6198;BME280;3132;42.622;23.328;2023-04-26T08:03:04;91947.69;;;12.65;65.74
6198;BME280;3132;42.622;23.328;2023-04-26T08:05:30;91950.09;;;12.19;64.62
6198;BME280;3132;42.622;23.328;2023-04-26T08:07:55;91944.66;;;11.68;65.90
6198;BME280;3132;42.622;23.328;2023-04-26T08:10:21;91949.34;;;11.58;67.10
6198;BME280;3132;42.622;23.328;2023-04-26T08:12:46;91950.69;;;11.69;67.11
6198;BME280;3132;42.622;23.328;2023-04-26T08:15:11;91949.84;;;11.99;67.56
6198;BME280;3132;42.622;23.328;2023-04-26T08:17:37;91945.94;;;11.49;68.80
6198;BME280;3132;42.622;23.328;2023-04-26T08:20:02;91914.38;;;11.45;67.69
6198;BME280;3132;42.622;23.328;2023-04-26T08:22:30;91945.28;;;12.13;68.26
6198;BME280;3132;42.622;23.328;2023-04-26T08:24:55;91956.84;;;12.12;66.64
6198;BME280;3132;42.622;23.328;2023-04-26T08:27:21;91940.06;;;12.13;66.76
6198;BME280;3132;42.622;23.328;2023-04-26T08:29:46;91964.03;;;12.62;67.30
6198;BME280;3132;42.622;23.328;2023-04-26T08:32:12;91957.97;;;12.28;66.01
6198;BME280;3132;42.622;23.328;2023-04-26T08:34:38;91952.41;;;11.82;67.58
6198;BME280;3132;42.622;23.328;2023-04-26T08:37:03;91952.94;;;12.01;67.15
6198;BME280;3132;42.622;23.328;2023-04-26T08:39:32;91954.47;;;12.02;66.04
6198;BME280;3132;42.622;23.328;2023-04-26T08:42:11;91877.03;;;11.45;65.19
6198;BME280;3132;42.622;23.328;2023-04-26T08:44:40;91960.94;;;11.96;66.02
6198;BME280;3132;42.622;23.328;2023-04-26T08:47:12;91970.22;;;12.19;65.58
6198;BME280;3132;42.622;23.328;2023-04-26T08:49:41;91944.25;;;12.22;66.67
6198;BME280;3132;42.622;23.328;2023-04-26T08:52:11;91966.59;;;11.89;65.04
6198;BME280;3132;42.622;23.328;2023-04-26T08:54:38;91973.69;;;12.28;64.35
6198;BME280;3132;42.622;23.328;2023-04-26T08:57:05;91964.75;;;12.29;63.83
6198;BME280;3132;42.622;23.328;2023-04-26T08:59:41;91973.47;;;12.16;63.90
6198;BME280;3132;42.622;23.328;2023-04-26T09:02:09;91969.84;;;12.34;64.97
6198;BME280;3132;42.622;23.328;2023-04-26T09:04:35;91962.13;;;12.37;63.42
6198;BME280;3132;42.622;23.328;2023-04-26T09:07:02;91946.06;;;12.13;64.63
6198;BME280;3132;42.622;23.328;2023-04-26T09:09:40;91979.75;;;12.54;65.10
6198;BME280;3132;42.622;23.328;2023-04-26T09:12:07;91988.34;;;12.46;64.38
6198;BME280;3132;42.622;23.328;2023-04-26T09:14:32;91973.59;;;12.67;64.13
6198;BME280;3132;42.622;23.328;2023-04-26T09:16:57;91984.66;;;12.64;64.15
6198;BME280;3132;42.622;23.328;2023-04-26T09:19:37;91988.72;;;12.95;62.96
6198;BME280;3132;42.622;23.328;2023-04-26T09:22:03;91995.63;;;12.57;62.79
6198;BME280;3132;42.622;23.328;2023-04-26T09:24:45;91991.63;;;12.77;63.26
6198;BME280;3132;42.622;23.328;2023-04-26T09:27:12;91995.38;;;12.93;63.28
6198;BME280;3132;42.622;23.328;2023-04-26T09:29:37;92005.28;;;12.48;62.34
6198;BME280;3132;42.622;23.328;2023-04-26T09:32:03;91995.28;;;12.42;64.56
6198;BME280;3132;42.622;23.328;2023-04-26T09:34:29;91993.88;;;12.44;64.64
6198;BME280;3132;42.622;23.328;2023-04-26T09:36:56;92000.63;;;12.37;65.03
6198;BME280;3132;42.622;23.328;2023-04-26T09:41:58;91988.91;;;12.34;62.52
6198;BME280;3132;42.622;23.328;2023-04-26T09:44:24;91987.28;;;12.55;63.72
6198;BME280;3132;42.622;23.328;2023-04-26T09:47:07;91975.34;;;12.24;62.76
6198;BME280;3132;42.622;23.328;2023-04-26T09:49:47;91987.53;;;13.27;61.75
6198;BME280;3132;42.622;23.328;2023-04-26T09:52:14;91989.22;;;13.06;62.13
6198;BME280;3132;42.622;23.328;2023-04-26T09:54:53;91968.72;;;13.08;62.22
6198;BME280;3132;42.622;23.328;2023-04-26T09:57:20;91985.66;;;13.11;59.99
6198;BME280;3132;42.622;23.328;2023-04-26T09:59:51;91982.75;;;13.12;59.64
6198;BME280;3132;42.622;23.328;2023-04-26T10:02:21;91986.75;;;13.35;59.00
6198;BME280;3132;42.622;23.328;2023-04-26T10:04:51;91990.91;;;13.62;60.16
6198;BME280;3132;42.622;23.328;2023-04-26T10:07:19;91992.44;;;12.94;59.58
6198;BME280;3132;42.622;23.328;2023-04-26T10:09:45;91984.91;;;13.10;60.79
6198;BME280;3132;42.622;23.328;2023-04-26T10:12:12;91991.28;;;13.81;57.65
6198;BME280;3132;42.622;23.328;2023-04-26T10:14:39;91984.91;;;13.27;60.53
6198;BME280;3132;42.622;23.328;2023-04-26T10:17:05;91976.84;;;13.66;57.44
6198;BME280;3132;42.622;23.328;2023-04-26T10:19:33;91963.25;;;13.64;59.22
6198;BME280;3132;42.622;23.328;2023-04-26T10:22:04;91978.81;;;13.86;57.42
6198;BME280;3132;42.622;23.328;2023-04-26T10:24:30;91973.72;;;13.81;58.35
6198;BME280;3132;42.622;23.328;2023-04-26T10:26:56;91975.59;;;14.18;57.42
6198;BME280;3132;42.622;23.328;2023-04-26T10:29:30;91964.53;;;14.04;56.64
6198;BME280;3132;42.622;23.328;2023-04-26T10:32:11;91966.53;;;12.84;56.48
6198;BME280;3132;42.622;23.328;2023-04-26T10:34:41;91977.94;;;13.57;55.96
6198;BME280;3132;42.622;23.328;2023-04-26T10:37:14;91983.06;;;13.19;57.50
6198;BME280;3132;42.622;23.328;2023-04-26T10:39:44;91969.97;;;13.19;57.21
6198;BME280;3132;42.622;23.328;2023-04-26T10:44:57;91961.44;;;12.88;57.02
6198;BME280;3132;42.622;23.328;2023-04-26T10:50:07;91976.34;;;13.73;55.63
6198;BME280;3132;42.622;23.328;2023-04-26T10:52:34;91977.81;;;13.36;56.31
6198;BME280;3132;42.622;23.328;2023-04-26T10:55:00;91970.69;;;13.45;54.88
6198;BME280;3132;42.622;23.328;2023-04-26T10:57:46;91970.72;;;13.28;54.15
6198;BME280;3132;42.622;23.328;2023-04-26T11:10:29;91973.31;;;13.54;54.84
6198;BME280;3132;42.622;23.328;2023-04-26T11:12:59;91958.22;;;13.51;52.79
6198;BME280;3132;42.622;23.328;2023-04-26T11:15:25;91978.47;;;13.88;52.24
6198;BME280;3132;42.622;23.328;2023-04-26T11:17:50;91968.09;;;13.37;52.92
6198;BME280;3132;42.622;23.328;2023-04-26T11:20:16;91970.75;;;13.91;52.39
6198;BME280;3132;42.622;23.328;2023-04-26T11:22:41;91962.91;;;14.29;49.94
6198;BME280;3132;42.622;23.328;2023-04-26T11:25:07;91974.22;;;13.66;52.38
6198;BME280;3132;42.622;23.328;2023-04-26T11:27:33;91978.06;;;13.77;54.87
6198;BME280;3132;42.622;23.328;2023-04-26T11:30:02;91981.00;;;13.67;52.53
6198;BME280;3132;42.622;23.328;2023-04-26T11:32:28;91982.09;;;14.12;51.59
6198;BME280;3132;42.622;23.328;2023-04-26T11:34:53;91967.06;;;14.21;51.18
6198;BME280;3132;42.622;23.328;2023-04-26T11:37:19;91973.97;;;14.05;49.93
6198;BME280;3132;42.622;23.328;2023-04-26T11:39:44;91980.16;;;13.92;50.84
6198;BME280;3132;42.622;23.328;2023-04-26T11:42:11;91981.50;;;14.44;52.20
6198;BME280;3132;42.622;23.328;2023-04-26T11:44:38;91973.59;;;13.69;51.97
6198;BME280;3132;42.622;23.328;2023-04-26T11:47:05;91985.56;;;13.87;51.51
6198;BME280;3132;42.622;23.328;2023-04-26T11:49:35;91977.56;;;13.84;52.50
6198;BME280;3132;42.622;23.328;2023-04-26T11:52:02;91979.97;;;14.06;50.99
6198;BME280;3132;42.622;23.328;2023-04-26T11:54:33;91985.81;;;13.48;51.69
6198;BME280;3132;42.622;23.328;2023-04-26T11:56:59;91981.22;;;13.20;52.85
6198;BME280;3132;42.622;23.328;2023-04-26T11:59:29;91974.69;;;12.83;52.97
6198;BME280;3132;42.622;23.328;2023-04-26T12:01:58;91983.66;;;13.33;52.07
6198;BME280;3132;42.622;23.328;2023-04-26T12:04:29;91970.16;;;14.23;50.08
6198;BME280;3132;42.622;23.328;2023-04-26T12:06:55;91969.63;;;14.47;51.22
6198;BME280;3132;42.622;23.328;2023-04-26T12:09:26;91962.91;;;13.74;52.25
6198;BME280;3132;42.622;23.328;2023-04-26T12:12:00;91971.59;;;13.66;51.24
6198;BME280;3132;42.622;23.328;2023-04-26T12:14:35;91966.34;;;13.66;51.64
6198;BME280;3132;42.622;23.328;2023-04-26T12:17:02;91963.31;;;13.93;53.22
6198;BME280;3132;42.622;23.328;2023-04-26T12:19:37;91961.28;;;13.53;52.24
6198;BME280;3132;42.622;23.328;2023-04-26T12:22:06;91963.31;;;13.93;50.30
6198;BME280;3132;42.622;23.328;2023-04-26T12:24:33;91955.03;;;14.20;50.59
6198;BME280;3132;42.622;23.328;2023-04-26T12:27:01;91960.78;;;14.14;52.19
6198;BME280;3132;42.622;23.328;2023-04-26T12:29:30;91967.41;;;14.28;51.48
6198;BME280;3132;42.622;23.328;2023-04-26T12:31:57;91959.34;;;13.87;48.65
6198;BME280;3132;42.622;23.328;2023-04-26T12:34:22;91969.28;;;13.65;50.53
6198;BME280;3132;42.622;23.328;2023-04-26T12:36:48;91958.28;;;13.71;49.34
6198;BME280;3132;42.622;23.328;2023-04-26T12:39:14;91962.81;;;14.08;49.91
6198;BME280;3132;42.622;23.328;2023-04-26T12:41:42;91951.19;;;13.80;49.55
6198;BME280;3132;42.622;23.328;2023-04-26T12:44:08;91952.25;;;13.79;50.49
6198;BME280;3132;42.622;23.328;2023-04-26T12:46:34;91961.84;;;13.67;51.44
6198;BME280;3132;42.622;23.328;2023-04-26T12:49:00;91929.09;;;13.27;51.37
6198;BME280;3132;42.622;23.328;2023-04-26T12:51:25;91950.09;;;13.18;51.05
6198;BME280;3132;42.622;23.328;2023-04-26T12:53:51;91949.91;;;13.15;53.10
6198;BME280;3132;42.622;23.328;2023-04-26T12:56:16;91959.75;;;13.26;52.88
6198;BME280;3132;42.622;23.328;2023-04-26T12:58:42;91951.13;;;13.34;52.05
6198;BME280;3132;42.622;23.328;2023-04-26T13:01:08;91944.63;;;13.49;51.56
6198;BME280;3132;42.622;23.328;2023-04-26T13:03:33;91962.19;;;13.48;52.45
6198;BME280;3132;42.622;23.328;2023-04-26T13:05:59;91944.34;;;13.33;52.13
6198;BME280;3132;42.622;23.328;2023-04-26T13:08:24;91947.88;;;12.86;53.65
6198;BME280;3132;42.622;23.328;2023-04-26T13:10:50;91961.75;;;12.95;54.14
6198;BME280;3132;42.622;23.328;2023-04-26T13:13:15;91959.72;;;12.75;55.14
6198;BME280;3132;42.622;23.328;2023-04-26T13:15:41;91968.97;;;12.64;55.29
6198;BME280;3132;42.622;23.328;2023-04-26T13:18:06;91962.91;;;12.29;55.63
6198;BME280;3132;42.622;23.328;2023-04-26T13:20:31;91974.34;;;12.42;55.87
6198;BME280;3132;42.622;23.328;2023-04-26T13:22:57;91966.94;;;12.52;54.23
6198;BME280;3132;42.622;23.328;2023-04-26T13:25:22;91994.00;;;12.31;56.47